Brilliance Of The Seas — C6SJ5 — position and weather

sailwx.info

Track history (hours):
 
Tides and Currents Weather Stations Pressure Air Temp Water Temp Dewpoint Dewpoint Depression Visibility Wind Speed Wind Dir Waves Ship Positions

Brilliance Of The Seas

Operator: Royal Caribbean Cruises Ltd

Last reported at 2018-Aug-14 20:58 UTC. Time now 2018-Aug-14 21:09 UTC.
Position N 59°57' E 030°11'.

Type: Ship. MMSI: 311361000.

Date/timePositionNaut miles runAvg speedWind from/ knotsBaromVisibWave heightAir tempDewpointWater temp
2018-Aug-14 20:58N 59°57' E 030°11'0 0.0
2018-Aug-14 20:28N 59°57' E 030°11'0 0.0
2018-Aug-14 19:58N 59°57' E 030°11'0 0.0
2018-Aug-14 19:28N 59°57' E 030°11'0 0.0
2018-Aug-14 18:58N 59°57' E 030°11'0 0.0
2018-Aug-14 18:28N 59°57' E 030°11'0 0.0
2018-Aug-14 17:58N 59°57' E 030°11'0 0.0
2018-Aug-14 17:28N 59°57' E 030°11'0 0.0
2018-Aug-14 16:58N 59°57' E 030°11'0 0.0
2018-Aug-14 16:28N 59°57' E 030°11'0 0.0
2018-Aug-14 15:58N 59°57' E 030°11'0 0.0
2018-Aug-14 15:28N 59°57' E 030°11'0 0.0
2018-Aug-14 14:58N 59°57' E 030°11'0 0.0
2018-Aug-14 14:29N 59°57' E 030°11'0 0.0
2018-Aug-14 13:58N 59°57' E 030°11'0 0.0
2018-Aug-14 13:16N 59°57' E 030°11'0 0.0
2018-Aug-14 12:58N 59°57' E 030°11'0 0.0
2018-Aug-14 12:25N 59°57' E 030°11'0 0.0
2018-Aug-14 11:58N 59°57' E 030°11'0 0.0
2018-Aug-14 11:25N 59°57' E 030°11'0 0.0
2018-Aug-14 10:58N 59°57' E 030°11'0 0.0
2018-Aug-14 10:28N 59°57' E 030°11'0 0.0
2018-Aug-14 09:58N 59°57' E 030°11'0 0.0
2018-Aug-14 09:28N 59°57' E 030°11'0 0.0
2018-Aug-14 08:55N 59°57' E 030°11'0 0.0
2018-Aug-14 08:28N 59°57' E 030°11'0 0.0
2018-Aug-14 07:58N 59°57' E 030°11'0 0.0
2018-Aug-14 07:28N 59°57' E 030°11'0 0.0
2018-Aug-14 06:58N 59°57' E 030°11'0 0.0
2018-Aug-14 06:28N 59°57' E 030°11'0 0.0
2018-Aug-14 05:58N 59°57' E 030°11'0 0.0
2018-Aug-14 05:28N 59°57' E 030°11'0 0.0
2018-Aug-14 04:58N 59°57' E 030°11'0 0.0
2018-Aug-14 04:28N 59°57' E 030°11'0 0.0
2018-Aug-14 03:58N 59°57' E 030°11'0 0.0
2018-Aug-14 03:28N 59°57' E 030°11'1 1.1
2018-Aug-14 03:00N 59°57' E 030°11'4 8.7
2018-Aug-14 02:30N 59°56' E 030°02'5 9.4
2018-Aug-14 02:00N 59°57' E 029°53'5 9.2
2018-Aug-14 01:30N 59°59' E 029°45'2914.7
2018-Aug-13 23:30N 60°02' E 028°46'1121.5
2018-Aug-13 23:00N 60°03' E 028°25'1121.2
2018-Aug-13 22:30N 60°08' E 028°06'4020.0
2018-Aug-13 20:29N 59°59' E 026°48'4621.6
2018-Aug-13 18:23N 59°50' E 025°19'922.7
2018-Aug-13 18:00N 59°48' E 025°02'1121.2
2018-Aug-13 17:30N 59°41' E 024°46'713.8
2018-Aug-13 17:00N 59°34' E 024°42'713.5
2018-Aug-13 16:30N 59°28' E 024°46'1 1.4
2018-Aug-13 15:59N 59°27' E 024°46'0 0.0
2018-Aug-13 15:29N 59°27' E 024°46'0 0.0
2018-Aug-13 14:59N 59°27' E 024°46'0 0.0
2018-Aug-13 14:29N 59°27' E 024°46'0 0.0
2018-Aug-13 14:00N 59°27' E 024°46'0 0.0
2018-Aug-13 13:30N 59°27' E 024°46'0 0.0
2018-Aug-13 13:00N 59°27' E 024°46'0 0.0
2018-Aug-13 12:27N 59°27' E 024°46'0 0.0
2018-Aug-13 12:00N 59°27' E 024°46'0 0.0
2018-Aug-13 11:30N 59°27' E 024°46'0 0.0
2018-Aug-13 11:00N 59°27' E 024°46'0 0.0
2018-Aug-13 10:30N 59°27' E 024°46'0 0.0
2018-Aug-13 10:00N 59°27' E 024°46'0 0.0
2018-Aug-13 09:29N 59°27' E 024°46'0 0.0
2018-Aug-13 09:00N 59°27' E 024°46'0 0.0
2018-Aug-13 08:31N 59°27' E 024°46'0 0.0
2018-Aug-13 08:00N 59°27' E 024°46'0 0.0
2018-Aug-13 07:30N 59°27' E 024°46'0 0.0
2018-Aug-13 07:00N 59°27' E 024°46'0 0.9
2018-Aug-13 06:30N 59°28' E 024°46'5 9.4
2018-Aug-13 06:00N 59°30' E 024°38'713.8
2018-Aug-13 05:30N 59°30' E 024°25'815.6
2018-Aug-13 05:00N 59°30' E 024°09'1515.8
2018-Aug-13 04:05N 59°29' E 023°40'415.9
2018-Aug-13 03:51N 59°29' E 023°33'4021.4
2018-Aug-13 02:00N 59°18' E 022°18'1511.3 330 / 251003.510.8 18.014.619.0
2018-Aug-13 00:38N 59°24' E 021°50'416.5
2018-Aug-13 00:24N 59°24' E 021°43'616.4
2018-Aug-13 00:00N 59°25' E 021°30'816.5
2018-Aug-12 23:30N 59°26' E 021°14'8513.1
2018-Aug-12 17:01N 59°29' E 018°27'012.5
2018-Aug-12 17:01N 59°29' E 018°27'5 9.7
2018-Aug-12 16:30N 59°24' E 018°26'3 5.8
2018-Aug-12 16:01N 59°22' E 018°23'510.5
2018-Aug-12 15:30N 59°20' E 018°13'4 7.1
2018-Aug-12 15:00N 59°19' E 018°06'0 0.2
2018-Aug-12 14:30N 59°19' E 018°06'0 0.0
2018-Aug-12 14:00N 59°19' E 018°06'0 0.0
2018-Aug-12 13:31N 59°19' E 018°06'0 0.0
2018-Aug-12 13:00N 59°19' E 018°06'0 0.0
2018-Aug-12 12:30N 59°19' E 018°06'0 0.0
2018-Aug-12 12:01N 59°19' E 018°06'0 0.0
2018-Aug-12 11:31N 59°19' E 018°06'0 0.0
2018-Aug-12 11:01N 59°19' E 018°06'0 0.0
2018-Aug-12 10:30N 59°19' E 018°06'0 0.0
2018-Aug-12 10:00N 59°19' E 018°06'0 0.0
2018-Aug-12 09:30N 59°19' E 018°06'0 0.0
2018-Aug-12 09:00N 59°19' E 018°06'0 0.0
2018-Aug-12 08:31N 59°19' E 018°06'0 0.0
2018-Aug-12 08:00N 59°19' E 018°06'0 0.0
2018-Aug-12 07:30N 59°19' E 018°06'0 0.0
2018-Aug-12 07:00N 59°19' E 018°06'0 0.0
2018-Aug-12 06:30N 59°19' E 018°06'0 0.0
2018-Aug-12 06:01N 59°19' E 018°06'2 3.8
2018-Aug-12 05:31N 59°19' E 018°10'611.5
2018-Aug-12 05:01N 59°23' E 018°19'4 8.1
2018-Aug-12 04:30N 59°23' E 018°27'4 8.7
2018-Aug-12 04:01N 59°27' E 018°25'710.5
2018-Aug-12 03:18N 59°33' E 018°35'57 6.9
2018-Aug-11 19:00N 58°36' E 018°54'15721.1 190 / 111012.5 19.5 21.0
2018-Aug-11 11:33N 56°11' E 017°01'122.5
2018-Aug-11 11:30N 56°10' E 016°60'1122.5
2018-Aug-11 11:00N 56°02' E 016°47'1223.2
2018-Aug-11 10:30N 55°55' E 016°29'1223.2
2018-Aug-11 10:00N 55°49' E 016°13'1223.3
2018-Aug-11 09:30N 55°43' E 015°54'1223.5
2018-Aug-11 09:00N 55°38' E 015°36'1223.5
2018-Aug-11 08:30N 55°33' E 015°17'1323.1
2018-Aug-11 07:58N 55°29' E 014°56'1123.1
2018-Aug-11 07:30N 55°25' E 014°39'1123.2
2018-Aug-11 07:01N 55°16' E 014°26'1223.1
2018-Aug-11 06:31N 55°06' E 014°16'5321.0
2018-Aug-11 04:00N 54°42' E 012°54'424.9 170 / 221015.510.8 19.015.720.0
2018-Aug-11 03:50N 54°46' E 012°52'617.3
2018-Aug-11 03:28N 54°44' E 012°42'1817.2
2018-Aug-11 02:25N 54°32' E 012°19'2115.5
2018-Aug-11 01:05N 54°24' E 011°46'317.2
2018-Aug-11 00:55N 54°26' E 011°41'717.0
2018-Aug-11 00:30N 54°29' E 011°30'917.5
2018-Aug-11 00:00N 54°33' E 011°17'917.1
2018-Aug-10 23:30N 54°37' E 011°04'817.2
2018-Aug-10 23:00N 54°42' E 010°52'917.4
2018-Aug-10 22:30N 54°51' E 010°52'816.0
2018-Aug-10 22:00N 54°58' E 010°58'1019.6
2018-Aug-10 21:30N 55°08' E 011°02'4116.4
2018-Aug-10 19:00N 55°48' E 010°48'6022.1 220 / 221018.7 19.0 20.3
2018-Aug-10 16:17N 56°09' E 012°28'519.2
2018-Aug-10 16:01N 56°06' E 012°35'815.7
2018-Aug-10 15:31N 55°59' E 012°42'1019.1
2018-Aug-10 15:01N 55°50' E 012°45'815.3
2018-Aug-10 14:30N 55°43' E 012°38'1 2.9
2018-Aug-10 14:00N 55°42' E 012°36'0 0.0
2018-Aug-10 13:27N 55°42' E 012°36'0 0.0
2018-Aug-10 13:00N 55°42' E 012°36'0 0.0
2018-Aug-10 12:21N 55°42' E 012°36'0 0.0
2018-Aug-10 11:57N 55°42' E 012°36'0 0.0
2018-Aug-10 11:27N 55°42' E 012°36'0 0.0
2018-Aug-10 11:00N 55°42' E 012°36'0 0.0
2018-Aug-10 10:30N 55°42' E 012°36'0 0.0
2018-Aug-10 09:54N 55°42' E 012°36'0 0.0
2018-Aug-10 09:27N 55°42' E 012°36'0 0.0
2018-Aug-10 09:00N 55°42' E 012°36'0 0.0
2018-Aug-10 08:30N 55°42' E 012°36'0 0.0
2018-Aug-10 07:57N 55°42' E 012°36'0 0.0
2018-Aug-10 07:30N 55°42' E 012°36'0 0.0
2018-Aug-10 07:00N 55°42' E 012°36'0 0.0
2018-Aug-10 06:30N 55°42' E 012°36'0 0.0
2018-Aug-10 06:00N 55°42' E 012°36'0 0.0
2018-Aug-10 05:30N 55°42' E 012°36'0 0.3
2018-Aug-10 05:00N 55°42' E 012°36'2 4.8
2018-Aug-10 04:30N 55°44' E 012°39'510.0
2018-Aug-10 04:00N 55°48' E 012°43'815.3
2018-Aug-10 03:30N 55°55' E 012°38'815.2
2018-Aug-10 03:00N 56°03' E 012°39'815.2
2018-Aug-10 02:30N 56°08' E 012°28'1019.6
2018-Aug-10 02:00N 56°12' E 012°12'4915.8 160 / 241003.510.8 21.019.420.0
2018-Aug-09 22:53N 56°58' E 011°42'616.7
2018-Aug-09 22:30N 57°04' E 011°39'816.1
2018-Aug-09 22:00N 57°12' E 011°35'816.5
2018-Aug-09 21:30N 57°20' E 011°28'816.6
2018-Aug-09 21:01N 57°27' E 011°22'816.3
2018-Aug-09 20:30N 57°34' E 011°15'816.5
2018-Aug-09 20:00N 57°41' E 011°07'816.2
2018-Aug-09 19:30N 57°47' E 010°55'816.5
2018-Aug-09 19:00N 57°51' E 010°42'4264.0
2018-Aug-09 19:00N 57°48' E 010°48'1224.0 050 / 121001.5 18.6
2018-Aug-09 18:30N 57°50' E 010°27'816.4
2018-Aug-09 18:00N 57°47' E 010°12'916.7
2018-Aug-09 17:29N 57°45' E 009°56'17016.2
2018-Aug-09 07:00N 55°36' E 006°36'21042.0 140 / 131015.5 5.4 20.018.419.0
2018-Aug-09 02:00N 52°12' E 005°12'5611.8 230 / 101013.510.8 19.017.419.0
2018-Aug-08 21:16N 52°58' E 004°20'621.7
2018-Aug-08 21:00N 52°53' E 004°17'1617.2
2018-Aug-08 20:02N 52°36' E 004°19'115.5
2018-Aug-08 19:58N 52°35' E 004°20'714.6
2018-Aug-08 19:30N 52°30' E 004°26'5 9.3
2018-Aug-08 19:00N 52°28' E 004°33'2 3.9
2018-Aug-08 18:30N 52°28' E 004°36'1 2.6
2018-Aug-08 18:00N 52°28' E 004°39'3 6.3
2018-Aug-08 17:30N 52°26' E 004°43'3 6.5
2018-Aug-08 17:01N 52°25' E 004°48'3 6.2
2018-Aug-08 16:30N 52°24' E 004°53'2 3.7
2018-Aug-08 15:59N 52°23' E 004°55'0 0.0
2018-Aug-08 15:29N 52°23' E 004°55'0 0.0
2018-Aug-08 14:59N 52°23' E 004°55'0 0.0
2018-Aug-08 14:29N 52°23' E 004°55'0 0.0
2018-Aug-08 13:59N 52°23' E 004°55'0 0.0
2018-Aug-08 13:29N 52°23' E 004°55'0 0.0
2018-Aug-08 12:59N 52°23' E 004°55'0 0.0
2018-Aug-08 12:29N 52°23' E 004°55'0 0.0
2018-Aug-08 11:59N 52°23' E 004°55'0 0.0
2018-Aug-08 11:29N 52°23' E 004°55'0 0.0
2018-Aug-08 10:59N 52°23' E 004°55'0 0.0
2018-Aug-08 10:29N 52°23' E 004°55'0 0.0
2018-Aug-08 09:59N 52°23' E 004°55'0 0.0
2018-Aug-08 09:29N 52°23' E 004°55'0 0.0
2018-Aug-08 08:59N 52°23' E 004°55'0 0.0
2018-Aug-08 08:29N 52°23' E 004°55'0 0.0
2018-Aug-08 07:59N 52°23' E 004°55'0 0.0
2018-Aug-08 07:29N 52°23' E 004°55'0 0.0
2018-Aug-08 06:59N 52°23' E 004°55'0 0.0
2018-Aug-08 06:29N 52°23' E 004°55'0 0.0
2018-Aug-08 05:59N 52°23' E 004°55'0 0.0
2018-Aug-08 05:29N 52°23' E 004°55'0 0.0
2018-Aug-08 04:59N 52°23' E 004°55'0 0.0
2018-Aug-08 04:29N 52°23' E 004°55'0 0.0
2018-Aug-08 03:59N 52°23' E 004°55'0 0.0
2018-Aug-08 03:29N 52°23' E 004°55'0 0.3
2018-Aug-08 03:01N 52°23' E 004°55'1 1.3
2018-Aug-08 02:30N 52°23' E 004°54'3 5.6
2018-Aug-08 02:00N 52°25' E 004°51'3 6.5
2018-Aug-08 01:30N 52°26' E 004°46'3 6.4
2018-Aug-08 01:00N 52°27' E 004°41'3 5.3
2018-Aug-08 00:30N 52°28' E 004°37'0 0.5
2018-Aug-08 00:00N 52°28' E 004°37'3 5.7
2018-Aug-07 23:30N 52°28' E 004°32'713.7
2018-Aug-07 23:00N 52°29' E 004°21'917.0
2018-Aug-07 22:30N 52°29' E 004°07'918.0
2018-Aug-07 22:01N 52°26' E 003°53'715.0
2018-Aug-07 21:30N 52°22' E 003°43'714.4
2018-Aug-07 21:00N 52°18' E 003°32'1019.6
2018-Aug-07 20:29N 52°13' E 003°18'1123.1
2018-Aug-07 20:00N 52°05' E 003°05'1822.7
2018-Aug-07 19:14N 51°52' E 002°45'922.5
2018-Aug-07 18:50N 51°45' E 002°36'722.3
2018-Aug-07 18:30N 51°40' E 002°28'1122.1
2018-Aug-07 18:01N 51°32' E 002°16'1121.8
2018-Aug-07 17:30N 51°24' E 002°04'1121.4
2018-Aug-07 17:00N 51°16' E 001°52'1121.2
2018-Aug-07 16:30N 51°08' E 001°42'918.2
2018-Aug-07 16:00N 51°02' E 001°32'714.6
2018-Aug-07 15:30N 51°06' E 001°22'2 3.1
2018-Aug-07 14:58N 51°07' E 001°19'0 0.0
2018-Aug-07 14:28N 51°07' E 001°19'0 0.0
2018-Aug-07 13:58N 51°07' E 001°19'0 0.0
2018-Aug-07 13:28N 51°07' E 001°19'0 0.0
2018-Aug-07 12:58N 51°07' E 001°19'0 0.0
2018-Aug-07 12:25N 51°07' E 001°19'0 0.0
2018-Aug-07 11:55N 51°07' E 001°19'0 0.0
2018-Aug-07 11:28N 51°07' E 001°19'0 0.0
2018-Aug-07 10:58N 51°07' E 001°19'0 0.0
2018-Aug-07 10:28N 51°07' E 001°19'0 0.0
2018-Aug-07 09:52N 51°07' E 001°19'0 0.0
2018-Aug-07 09:28N 51°07' E 001°19'0 0.0
2018-Aug-07 08:55N 51°07' E 001°19'0 0.0
2018-Aug-07 08:28N 51°07' E 001°19'0 0.0
2018-Aug-07 07:58N 51°07' E 001°19'0 0.0
2018-Aug-07 07:22N 51°07' E 001°19'0 0.0
2018-Aug-07 06:58N 51°07' E 001°19'0 0.0
2018-Aug-07 06:28N 51°07' E 001°19'0 0.0
2018-Aug-07 05:55N 51°07' E 001°19'0 0.0
2018-Aug-07 05:28N 51°07' E 001°19'0 0.0
2018-Aug-07 04:58N 51°07' E 001°19'0 0.0
2018-Aug-07 04:13N 51°07' E 001°19'0 0.0
2018-Aug-07 03:58N 51°07' E 001°19'0 0.9
2018-Aug-07 03:30N 51°07' E 001°20'5 9.2
2018-Aug-07 03:00N 51°07' E 001°27'612.1
2018-Aug-07 02:30N 51°01' E 001°32'714.6
2018-Aug-07 02:00N 50°55' E 001°25'714.7
2018-Aug-07 01:30N 50°48' E 001°22'815.7
2018-Aug-07 01:00N 50°40' E 001°20'1121.7
2018-Aug-07 00:30N 50°33' E 001°07'1121.6
2018-Aug-07 00:00N 50°28' E 000°52'1121.7
2018-Aug-06 23:31N 50°25' E 000°36'1121.7
2018-Aug-06 23:00N 50°22' E 000°20'1121.5
2018-Aug-06 22:30N 50°20' E 000°03'1121.6
2018-Aug-06 22:01N 50°15' W 000°12'1121.2
2018-Aug-06 21:30N 50°11' W 000°27'1121.1
2018-Aug-06 21:00N 50°06' W 000°42'1121.1
2018-Aug-06 20:30N 50°02' W 000°57'1121.0
2018-Aug-06 20:00N 49°57' W 001°11'3234.5
2018-Aug-06 20:00N 49°54' W 001°12'919.4 350 / 91013.510.8 19.015.719.0
2018-Aug-06 19:30N 49°54' W 001°27'1020.9
2018-Aug-06 19:00N 49°50' W 001°42'1120.4
2018-Aug-06 18:29N 49°46' W 001°57'919.2
2018-Aug-06 18:00N 49°41' W 002°09'917.8
2018-Aug-06 17:30N 49°34' W 002°18'815.8
2018-Aug-06 17:00N 49°27' W 002°24'4 7.2
2018-Aug-06 16:31N 49°27' W 002°30'1 1.4
2018-Aug-06 16:00N 49°28' W 002°31'0 0.0
2018-Aug-06 15:31N 49°28' W 002°31'0 0.0
2018-Aug-06 14:59N 49°28' W 002°31'0 0.0
2018-Aug-06 14:30N 49°28' W 002°31'0 0.0
2018-Aug-06 14:00N 49°28' W 002°31'0 0.0
2018-Aug-06 13:31N 49°28' W 002°31'0 0.0
2018-Aug-06 13:01N 49°28' W 002°31'0 0.0
2018-Aug-06 12:31N 49°28' W 002°31'0 0.0
2018-Aug-06 11:55N 49°28' W 002°31'0 0.0
2018-Aug-06 11:30N 49°28' W 002°31'0 0.0
2018-Aug-06 11:00N 49°28' W 002°31'0 0.0
2018-Aug-06 10:30N 49°28' W 002°31'0 0.0
2018-Aug-06 10:01N 49°28' W 002°31'0 0.0
2018-Aug-06 09:30N 49°28' W 002°31'0 0.0
2018-Aug-06 09:00N 49°28' W 002°31'0 0.0
2018-Aug-06 08:31N 49°28' W 002°31'0 0.0
2018-Aug-06 08:01N 49°28' W 002°31'0 0.0
2018-Aug-06 07:29N 49°28' W 002°31'0 0.0
2018-Aug-06 07:01N 49°28' W 002°31'0 0.0
2018-Aug-06 06:30N 49°28' W 002°31'0 0.0
2018-Aug-06 06:01N 49°28' W 002°31'2 3.6
2018-Aug-06 05:30N 49°26' W 002°30'3 6.5
2018-Aug-06 05:01N 49°23' W 002°33'3 6.7
2018-Aug-06 04:30N 49°23' W 002°38'4 7.2
2018-Aug-06 04:01N 49°23' W 002°43'4 8.6
2018-Aug-06 03:30N 49°24' W 002°50'4 8.4
2018-Aug-06 03:00N 49°25' W 002°56'4 8.4
2018-Aug-06 02:30N 49°26' W 003°02'4 8.5
2018-Aug-06 02:00N 49°27' W 003°09'4 8.5
2018-Aug-06 01:31N 49°28' W 003°15'4 8.5
2018-Aug-06 01:01N 49°29' W 003°21'4 8.3
2018-Aug-06 00:31N 49°31' W 003°27'4 8.4
2018-Aug-06 00:01N 49°32' W 003°33'5 9.0
2018-Aug-05 23:30N 49°33' W 003°40'510.4
2018-Aug-05 23:00N 49°34' W 003°48'4 8.9
2018-Aug-05 22:30N 49°35' W 003°55'4 8.8
2018-Aug-05 22:00N 49°36' W 004°01'159.5
2018-Aug-05 22:00N 49°36' W 004°00'710.1 060 / 91017.510.8 19.017.419.0
2018-Aug-05 21:16N 49°37' W 004°11'2 8.9
2018-Aug-05 21:01N 49°38' W 004°15'5 8.9
2018-Aug-05 20:25N 49°39' W 004°23'6 9.0
2018-Aug-05 19:45N 49°41' W 004°31'5 8.8
2018-Aug-05 19:14N 49°42' W 004°38'2 8.9
2018-Aug-05 19:00N 49°42' W 004°41'4 9.0
2018-Aug-05 18:30N 49°44' W 004°48'5 8.8
2018-Aug-05 17:59N 49°45' W 004°55'4 8.4
2018-Aug-05 17:30N 49°45' W 005°01'130 7.8
2018-Aug-05 00:58N 51°15' W 007°28'8 8.7
2018-Aug-04 23:59N 51°21' W 007°37'7 8.6
2018-Aug-04 23:09N 51°27' W 007°46'1 8.7
2018-Aug-04 23:00N 51°27' W 007°47'4 8.7
2018-Aug-04 22:31N 51°30' W 007°52'4 8.8
2018-Aug-04 22:00N 51°34' W 007°57'4289.7
2018-Aug-04 22:00N 51°30' W 007°54'817.4 260 / 71024.510.8 17.015.317.0
2018-Aug-04 21:30N 51°37' W 008°02'4 8.9
2018-Aug-04 21:00N 51°40' W 008°07'  
Track history (hours):
 
Tides and Currents Weather Stations Pressure Air Temp Water Temp Dewpoint Dewpoint Depression Visibility Wind Speed Wind Dir Waves Ship Positions

Brilliance Of The Seas

Operator: Royal Caribbean Cruises Ltd

Last reported at 2018-Aug-14 20:58 UTC. Time now 2018-Aug-14 21:09 UTC.
Position N 59°57' E 030°11'.

Type: Ship. MMSI: 311361000.

Date/timePositionNaut miles runAvg speedWind from/ knotsBaromVisibWave heightAir tempDewpointWater temp
2018-Aug-14 20:58N 59°57' E 030°11'0 0.0
2018-Aug-14 20:28N 59°57' E 030°11'0 0.0
2018-Aug-14 19:58N 59°57' E 030°11'0 0.0
2018-Aug-14 19:28N 59°57' E 030°11'0 0.0
2018-Aug-14 18:58N 59°57' E 030°11'0 0.0
2018-Aug-14 18:28N 59°57' E 030°11'0 0.0
2018-Aug-14 17:58N 59°57' E 030°11'0 0.0
2018-Aug-14 17:28N 59°57' E 030°11'0 0.0
2018-Aug-14 16:58N 59°57' E 030°11'0 0.0
2018-Aug-14 16:28N 59°57' E 030°11'0 0.0
2018-Aug-14 15:58N 59°57' E 030°11'0 0.0
2018-Aug-14 15:28N 59°57' E 030°11'0 0.0
2018-Aug-14 14:58N 59°57' E 030°11'0 0.0
2018-Aug-14 14:29N 59°57' E 030°11'0 0.0
2018-Aug-14 13:58N 59°57' E 030°11'0 0.0
2018-Aug-14 13:16N 59°57' E 030°11'0 0.0
2018-Aug-14 12:58N 59°57' E 030°11'0 0.0
2018-Aug-14 12:25N 59°57' E 030°11'0 0.0
2018-Aug-14 11:58N 59°57' E 030°11'0 0.0
2018-Aug-14 11:25N 59°57' E 030°11'0 0.0
2018-Aug-14 10:58N 59°57' E 030°11'0 0.0
2018-Aug-14 10:28N 59°57' E 030°11'0 0.0
2018-Aug-14 09:58N 59°57' E 030°11'0 0.0
2018-Aug-14 09:28N 59°57' E 030°11'0 0.0
2018-Aug-14 08:55N 59°57' E 030°11'0 0.0
2018-Aug-14 08:28N 59°57' E 030°11'0 0.0
2018-Aug-14 07:58N 59°57' E 030°11'0 0.0
2018-Aug-14 07:28N 59°57' E 030°11'0 0.0
2018-Aug-14 06:58N 59°57' E 030°11'0 0.0
2018-Aug-14 06:28N 59°57' E 030°11'0 0.0
2018-Aug-14 05:58N 59°57' E 030°11'0 0.0
2018-Aug-14 05:28N 59°57' E 030°11'0 0.0
2018-Aug-14 04:58N 59°57' E 030°11'0 0.0
2018-Aug-14 04:28N 59°57' E 030°11'0 0.0
2018-Aug-14 03:58N 59°57' E 030°11'0 0.0
2018-Aug-14 03:28N 59°57' E 030°11'1 1.1
2018-Aug-14 03:00N 59°57' E 030°11'4 8.7
2018-Aug-14 02:30N 59°56' E 030°02'5 9.4
2018-Aug-14 02:00N 59°57' E 029°53'5 9.2
2018-Aug-14 01:30N 59°59' E 029°45'2914.7
2018-Aug-13 23:30N 60°02' E 028°46'1121.5
2018-Aug-13 23:00N 60°03' E 028°25'1121.2
2018-Aug-13 22:30N 60°08' E 028°06'4020.0
2018-Aug-13 20:29N 59°59' E 026°48'4621.6
2018-Aug-13 18:23N 59°50' E 025°19'922.7
2018-Aug-13 18:00N 59°48' E 025°02'1121.2
2018-Aug-13 17:30N 59°41' E 024°46'713.8
2018-Aug-13 17:00N 59°34' E 024°42'713.5
2018-Aug-13 16:30N 59°28' E 024°46'1 1.4
2018-Aug-13 15:59N 59°27' E 024°46'0 0.0
2018-Aug-13 15:29N 59°27' E 024°46'0 0.0
2018-Aug-13 14:59N 59°27' E 024°46'0 0.0
2018-Aug-13 14:29N 59°27' E 024°46'0 0.0
2018-Aug-13 14:00N 59°27' E 024°46'0 0.0
2018-Aug-13 13:30N 59°27' E 024°46'0 0.0
2018-Aug-13 13:00N 59°27' E 024°46'0 0.0
2018-Aug-13 12:27N 59°27' E 024°46'0 0.0
2018-Aug-13 12:00N 59°27' E 024°46'0 0.0
2018-Aug-13 11:30N 59°27' E 024°46'0 0.0
2018-Aug-13 11:00N 59°27' E 024°46'0 0.0
2018-Aug-13 10:30N 59°27' E 024°46'0 0.0
2018-Aug-13 10:00N 59°27' E 024°46'0 0.0
2018-Aug-13 09:29N 59°27' E 024°46'0 0.0
2018-Aug-13 09:00N 59°27' E 024°46'0 0.0
2018-Aug-13 08:31N 59°27' E 024°46'0 0.0
2018-Aug-13 08:00N 59°27' E 024°46'0 0.0
2018-Aug-13 07:30N 59°27' E 024°46'0 0.0
2018-Aug-13 07:00N 59°27' E 024°46'0 0.9
2018-Aug-13 06:30N 59°28' E 024°46'5 9.4
2018-Aug-13 06:00N 59°30' E 024°38'713.8
2018-Aug-13 05:30N 59°30' E 024°25'815.6
2018-Aug-13 05:00N 59°30' E 024°09'1515.8
2018-Aug-13 04:05N 59°29' E 023°40'415.9
2018-Aug-13 03:51N 59°29' E 023°33'4021.4
2018-Aug-13 02:00N 59°18' E 022°18'1511.3 330 / 251003.510.8 18.014.619.0
2018-Aug-13 00:38N 59°24' E 021°50'416.5
2018-Aug-13 00:24N 59°24' E 021°43'616.4
2018-Aug-13 00:00N 59°25' E 021°30'816.5
2018-Aug-12 23:30N 59°26' E 021°14'8513.1
2018-Aug-12 17:01N 59°29' E 018°27'012.5
2018-Aug-12 17:01N 59°29' E 018°27'5 9.7
2018-Aug-12 16:30N 59°24' E 018°26'3 5.8
2018-Aug-12 16:01N 59°22' E 018°23'510.5
2018-Aug-12 15:30N 59°20' E 018°13'4 7.1
2018-Aug-12 15:00N 59°19' E 018°06'0 0.2
2018-Aug-12 14:30N 59°19' E 018°06'0 0.0
2018-Aug-12 14:00N 59°19' E 018°06'0 0.0
2018-Aug-12 13:31N 59°19' E 018°06'0 0.0
2018-Aug-12 13:00N 59°19' E 018°06'0 0.0
2018-Aug-12 12:30N 59°19' E 018°06'0 0.0
2018-Aug-12 12:01N 59°19' E 018°06'0 0.0
2018-Aug-12 11:31N 59°19' E 018°06'0 0.0
2018-Aug-12 11:01N 59°19' E 018°06'0 0.0
2018-Aug-12 10:30N 59°19' E 018°06'0 0.0
2018-Aug-12 10:00N 59°19' E 018°06'0 0.0
2018-Aug-12 09:30N 59°19' E 018°06'0 0.0
2018-Aug-12 09:00N 59°19' E 018°06'0 0.0
2018-Aug-12 08:31N 59°19' E 018°06'0 0.0
2018-Aug-12 08:00N 59°19' E 018°06'0 0.0
2018-Aug-12 07:30N 59°19' E 018°06'0 0.0
2018-Aug-12 07:00N 59°19' E 018°06'0 0.0
2018-Aug-12 06:30N 59°19' E 018°06'0 0.0
2018-Aug-12 06:01N 59°19' E 018°06'2 3.8
2018-Aug-12 05:31N 59°19' E 018°10'611.5
2018-Aug-12 05:01N 59°23' E 018°19'4 8.1
2018-Aug-12 04:30N 59°23' E 018°27'4 8.7
2018-Aug-12 04:01N 59°27' E 018°25'710.5
2018-Aug-12 03:18N 59°33' E 018°35'57 6.9
2018-Aug-11 19:00N 58°36' E 018°54'15721.1 190 / 111012.5 19.5 21.0
2018-Aug-11 11:33N 56°11' E 017°01'122.5
2018-Aug-11 11:30N 56°10' E 016°60'1122.5
2018-Aug-11 11:00N 56°02' E 016°47'1223.2
2018-Aug-11 10:30N 55°55' E 016°29'1223.2
2018-Aug-11 10:00N 55°49' E 016°13'1223.3
2018-Aug-11 09:30N 55°43' E 015°54'1223.5
2018-Aug-11 09:00N 55°38' E 015°36'1223.5
2018-Aug-11 08:30N 55°33' E 015°17'1323.1
2018-Aug-11 07:58N 55°29' E 014°56'1123.1
2018-Aug-11 07:30N 55°25' E 014°39'1123.2
2018-Aug-11 07:01N 55°16' E 014°26'1223.1
2018-Aug-11 06:31N 55°06' E 014°16'5321.0
2018-Aug-11 04:00N 54°42' E 012°54'424.9 170 / 221015.510.8 19.015.720.0
2018-Aug-11 03:50N 54°46' E 012°52'617.3
2018-Aug-11 03:28N 54°44' E 012°42'1817.2
2018-Aug-11 02:25N 54°32' E 012°19'2115.5
2018-Aug-11 01:05N 54°24' E 011°46'317.2
2018-Aug-11 00:55N 54°26' E 011°41'717.0
2018-Aug-11 00:30N 54°29' E 011°30'917.5
2018-Aug-11 00:00N 54°33' E 011°17'917.1
2018-Aug-10 23:30N 54°37' E 011°04'817.2
2018-Aug-10 23:00N 54°42' E 010°52'917.4
2018-Aug-10 22:30N 54°51' E 010°52'816.0
2018-Aug-10 22:00N 54°58' E 010°58'1019.6
2018-Aug-10 21:30N 55°08' E 011°02'4116.4
2018-Aug-10 19:00N 55°48' E 010°48'6022.1 220 / 221018.7 19.0 20.3
2018-Aug-10 16:17N 56°09' E 012°28'519.2
2018-Aug-10 16:01N 56°06' E 012°35'815.7
2018-Aug-10 15:31N 55°59' E 012°42'1019.1
2018-Aug-10 15:01N 55°50' E 012°45'815.3
2018-Aug-10 14:30N 55°43' E 012°38'1 2.9
2018-Aug-10 14:00N 55°42' E 012°36'0 0.0
2018-Aug-10 13:27N 55°42' E 012°36'0 0.0
2018-Aug-10 13:00N 55°42' E 012°36'0 0.0
2018-Aug-10 12:21N 55°42' E 012°36'0 0.0
2018-Aug-10 11:57N 55°42' E 012°36'0 0.0
2018-Aug-10 11:27N 55°42' E 012°36'0 0.0
2018-Aug-10 11:00N 55°42' E 012°36'0 0.0
2018-Aug-10 10:30N 55°42' E 012°36'0 0.0
2018-Aug-10 09:54N 55°42' E 012°36'0 0.0
2018-Aug-10 09:27N 55°42' E 012°36'0 0.0
2018-Aug-10 09:00N 55°42' E 012°36'0 0.0
2018-Aug-10 08:30N 55°42' E 012°36'0 0.0
2018-Aug-10 07:57N 55°42' E 012°36'0 0.0
2018-Aug-10 07:30N 55°42' E 012°36'0 0.0
2018-Aug-10 07:00N 55°42' E 012°36'0 0.0
2018-Aug-10 06:30N 55°42' E 012°36'0 0.0
2018-Aug-10 06:00N 55°42' E 012°36'0 0.0
2018-Aug-10 05:30N 55°42' E 012°36'0 0.3
2018-Aug-10 05:00N 55°42' E 012°36'2 4.8
2018-Aug-10 04:30N 55°44' E 012°39'510.0
2018-Aug-10 04:00N 55°48' E 012°43'815.3
2018-Aug-10 03:30N 55°55' E 012°38'815.2
2018-Aug-10 03:00N 56°03' E 012°39'815.2
2018-Aug-10 02:30N 56°08' E 012°28'1019.6
2018-Aug-10 02:00N 56°12' E 012°12'4915.8 160 / 241003.510.8 21.019.420.0
2018-Aug-09 22:53N 56°58' E 011°42'616.7
2018-Aug-09 22:30N 57°04' E 011°39'816.1
2018-Aug-09 22:00N 57°12' E 011°35'816.5
2018-Aug-09 21:30N 57°20' E 011°28'816.6
2018-Aug-09 21:01N 57°27' E 011°22'816.3
2018-Aug-09 20:30N 57°34' E 011°15'816.5
2018-Aug-09 20:00N 57°41' E 011°07'816.2
2018-Aug-09 19:30N 57°47' E 010°55'816.5
2018-Aug-09 19:00N 57°51' E 010°42'4264.0
2018-Aug-09 19:00N 57°48' E 010°48'1224.0 050 / 121001.5 18.6
2018-Aug-09 18:30N 57°50' E 010°27'816.4
2018-Aug-09 18:00N 57°47' E 010°12'916.7
2018-Aug-09 17:29N 57°45' E 009°56'17016.2
2018-Aug-09 07:00N 55°36' E 006°36'21042.0 140 / 131015.5 5.4 20.018.419.0
2018-Aug-09 02:00N 52°12' E 005°12'5611.8 230 / 101013.510.8 19.017.419.0
2018-Aug-08 21:16N 52°58' E 004°20'621.7
2018-Aug-08 21:00N 52°53' E 004°17'1617.2
2018-Aug-08 20:02N 52°36' E 004°19'115.5
2018-Aug-08 19:58N 52°35' E 004°20'714.6
2018-Aug-08 19:30N 52°30' E 004°26'5 9.3
2018-Aug-08 19:00N 52°28' E 004°33'2 3.9
2018-Aug-08 18:30N 52°28' E 004°36'1 2.6
2018-Aug-08 18:00N 52°28' E 004°39'3 6.3
2018-Aug-08 17:30N 52°26' E 004°43'3 6.5
2018-Aug-08 17:01N 52°25' E 004°48'3 6.2
2018-Aug-08 16:30N 52°24' E 004°53'2 3.7
2018-Aug-08 15:59N 52°23' E 004°55'0 0.0
2018-Aug-08 15:29N 52°23' E 004°55'0 0.0
2018-Aug-08 14:59N 52°23' E 004°55'0 0.0
2018-Aug-08 14:29N 52°23' E 004°55'0 0.0
2018-Aug-08 13:59N 52°23' E 004°55'0 0.0
2018-Aug-08 13:29N 52°23' E 004°55'0 0.0
2018-Aug-08 12:59N 52°23' E 004°55'0 0.0
2018-Aug-08 12:29N 52°23' E 004°55'0 0.0
2018-Aug-08 11:59N 52°23' E 004°55'0 0.0
2018-Aug-08 11:29N 52°23' E 004°55'0 0.0
2018-Aug-08 10:59N 52°23' E 004°55'0 0.0
2018-Aug-08 10:29N 52°23' E 004°55'0 0.0
2018-Aug-08 09:59N 52°23' E 004°55'0 0.0
2018-Aug-08 09:29N 52°23' E 004°55'0 0.0
2018-Aug-08 08:59N 52°23' E 004°55'0 0.0
2018-Aug-08 08:29N 52°23' E 004°55'0 0.0
2018-Aug-08 07:59N 52°23' E 004°55'0 0.0
2018-Aug-08 07:29N 52°23' E 004°55'0 0.0
2018-Aug-08 06:59N 52°23' E 004°55'0 0.0
2018-Aug-08 06:29N 52°23' E 004°55'0 0.0
2018-Aug-08 05:59N 52°23' E 004°55'0 0.0
2018-Aug-08 05:29N 52°23' E 004°55'0 0.0
2018-Aug-08 04:59N 52°23' E 004°55'0 0.0
2018-Aug-08 04:29N 52°23' E 004°55'0 0.0
2018-Aug-08 03:59N 52°23' E 004°55'0 0.0
2018-Aug-08 03:29N 52°23' E 004°55'0 0.3
2018-Aug-08 03:01N 52°23' E 004°55'1 1.3
2018-Aug-08 02:30N 52°23' E 004°54'3 5.6
2018-Aug-08 02:00N 52°25' E 004°51'3 6.5
2018-Aug-08 01:30N 52°26' E 004°46'3 6.4
2018-Aug-08 01:00N 52°27' E 004°41'3 5.3
2018-Aug-08 00:30N 52°28' E 004°37'0 0.5
2018-Aug-08 00:00N 52°28' E 004°37'3 5.7
2018-Aug-07 23:30N 52°28' E 004°32'713.7
2018-Aug-07 23:00N 52°29' E 004°21'917.0
2018-Aug-07 22:30N 52°29' E 004°07'918.0
2018-Aug-07 22:01N 52°26' E 003°53'715.0
2018-Aug-07 21:30N 52°22' E 003°43'714.4
2018-Aug-07 21:00N 52°18' E 003°32'1019.6
2018-Aug-07 20:29N 52°13' E 003°18'1123.1
2018-Aug-07 20:00N 52°05' E 003°05'1822.7
2018-Aug-07 19:14N 51°52' E 002°45'922.5
2018-Aug-07 18:50N 51°45' E 002°36'722.3
2018-Aug-07 18:30N 51°40' E 002°28'1122.1
2018-Aug-07 18:01N 51°32' E 002°16'1121.8
2018-Aug-07 17:30N 51°24' E 002°04'1121.4
2018-Aug-07 17:00N 51°16' E 001°52'1121.2
2018-Aug-07 16:30N 51°08' E 001°42'918.2
2018-Aug-07 16:00N 51°02' E 001°32'714.6
2018-Aug-07 15:30N 51°06' E 001°22'2 3.1
2018-Aug-07 14:58N 51°07' E 001°19'0 0.0
2018-Aug-07 14:28N 51°07' E 001°19'0 0.0
2018-Aug-07 13:58N 51°07' E 001°19'0 0.0
2018-Aug-07 13:28N 51°07' E 001°19'0 0.0
2018-Aug-07 12:58N 51°07' E 001°19'0 0.0
2018-Aug-07 12:25N 51°07' E 001°19'0 0.0
2018-Aug-07 11:55N 51°07' E 001°19'0 0.0
2018-Aug-07 11:28N 51°07' E 001°19'0 0.0
2018-Aug-07 10:58N 51°07' E 001°19'0 0.0
2018-Aug-07 10:28N 51°07' E 001°19'0 0.0
2018-Aug-07 09:52N 51°07' E 001°19'0 0.0
2018-Aug-07 09:28N 51°07' E 001°19'0 0.0
2018-Aug-07 08:55N 51°07' E 001°19'0 0.0
2018-Aug-07 08:28N 51°07' E 001°19'0 0.0
2018-Aug-07 07:58N 51°07' E 001°19'0 0.0
2018-Aug-07 07:22N 51°07' E 001°19'0 0.0
2018-Aug-07 06:58N 51°07' E 001°19'0 0.0
2018-Aug-07 06:28N 51°07' E 001°19'0 0.0
2018-Aug-07 05:55N 51°07' E 001°19'0 0.0
2018-Aug-07 05:28N 51°07' E 001°19'0 0.0
2018-Aug-07 04:58N 51°07' E 001°19'0 0.0
2018-Aug-07 04:13N 51°07' E 001°19'0 0.0
2018-Aug-07 03:58N 51°07' E 001°19'0 0.9
2018-Aug-07 03:30N 51°07' E 001°20'5 9.2
2018-Aug-07 03:00N 51°07' E 001°27'612.1
2018-Aug-07 02:30N 51°01' E 001°32'714.6
2018-Aug-07 02:00N 50°55' E 001°25'714.7
2018-Aug-07 01:30N 50°48' E 001°22'815.7
2018-Aug-07 01:00N 50°40' E 001°20'1121.7
2018-Aug-07 00:30N 50°33' E 001°07'1121.6
2018-Aug-07 00:00N 50°28' E 000°52'1121.7
2018-Aug-06 23:31N 50°25' E 000°36'1121.7
2018-Aug-06 23:00N 50°22' E 000°20'1121.5
2018-Aug-06 22:30N 50°20' E 000°03'1121.6
2018-Aug-06 22:01N 50°15' W 000°12'1121.2
2018-Aug-06 21:30N 50°11' W 000°27'1121.1
2018-Aug-06 21:00N 50°06' W 000°42'1121.1
2018-Aug-06 20:30N 50°02' W 000°57'1121.0
2018-Aug-06 20:00N 49°57' W 001°11'3234.5
2018-Aug-06 20:00N 49°54' W 001°12'919.4 350 / 91013.510.8 19.015.719.0
2018-Aug-06 19:30N 49°54' W 001°27'1020.9
2018-Aug-06 19:00N 49°50' W 001°42'1120.4
2018-Aug-06 18:29N 49°46' W 001°57'919.2
2018-Aug-06 18:00N 49°41' W 002°09'917.8
2018-Aug-06 17:30N 49°34' W 002°18'815.8
2018-Aug-06 17:00N 49°27' W 002°24'4 7.2
2018-Aug-06 16:31N 49°27' W 002°30'1 1.4
2018-Aug-06 16:00N 49°28' W 002°31'0 0.0
2018-Aug-06 15:31N 49°28' W 002°31'0 0.0
2018-Aug-06 14:59N 49°28' W 002°31'0 0.0
2018-Aug-06 14:30N 49°28' W 002°31'0 0.0
2018-Aug-06 14:00N 49°28' W 002°31'0 0.0
2018-Aug-06 13:31N 49°28' W 002°31'0 0.0
2018-Aug-06 13:01N 49°28' W 002°31'0 0.0
2018-Aug-06 12:31N 49°28' W 002°31'0 0.0
2018-Aug-06 11:55N 49°28' W 002°31'0 0.0
2018-Aug-06 11:30N 49°28' W 002°31'0 0.0
2018-Aug-06 11:00N 49°28' W 002°31'0 0.0
2018-Aug-06 10:30N 49°28' W 002°31'0 0.0
2018-Aug-06 10:01N 49°28' W 002°31'0 0.0
2018-Aug-06 09:30N 49°28' W 002°31'0 0.0
2018-Aug-06 09:00N 49°28' W 002°31'0 0.0
2018-Aug-06 08:31N 49°28' W 002°31'0 0.0
2018-Aug-06 08:01N 49°28' W 002°31'0 0.0
2018-Aug-06 07:29N 49°28' W 002°31'0 0.0
2018-Aug-06 07:01N 49°28' W 002°31'0 0.0
2018-Aug-06 06:30N 49°28' W 002°31'0 0.0
2018-Aug-06 06:01N 49°28' W 002°31'2 3.6
2018-Aug-06 05:30N 49°26' W 002°30'3 6.5
2018-Aug-06 05:01N 49°23' W 002°33'3 6.7
2018-Aug-06 04:30N 49°23' W 002°38'4 7.2
2018-Aug-06 04:01N 49°23' W 002°43'4 8.6
2018-Aug-06 03:30N 49°24' W 002°50'4 8.4
2018-Aug-06 03:00N 49°25' W 002°56'4 8.4
2018-Aug-06 02:30N 49°26' W 003°02'4 8.5
2018-Aug-06 02:00N 49°27' W 003°09'4 8.5
2018-Aug-06 01:31N 49°28' W 003°15'4 8.5
2018-Aug-06 01:01N 49°29' W 003°21'4 8.3
2018-Aug-06 00:31N 49°31' W 003°27'4 8.4
2018-Aug-06 00:01N 49°32' W 003°33'5 9.0
2018-Aug-05 23:30N 49°33' W 003°40'510.4
2018-Aug-05 23:00N 49°34' W 003°48'4 8.9
2018-Aug-05 22:30N 49°35' W 003°55'4 8.8
2018-Aug-05 22:00N 49°36' W 004°01'159.5
2018-Aug-05 22:00N 49°36' W 004°00'710.1 060 / 91017.510.8 19.017.419.0
2018-Aug-05 21:16N 49°37' W 004°11'2 8.9
2018-Aug-05 21:01N 49°38' W 004°15'5 8.9
2018-Aug-05 20:25N 49°39' W 004°23'6 9.0
2018-Aug-05 19:45N 49°41' W 004°31'5 8.8
2018-Aug-05 19:14N 49°42' W 004°38'2 8.9
2018-Aug-05 19:00N 49°42' W 004°41'4 9.0
2018-Aug-05 18:30N 49°44' W 004°48'5 8.8
2018-Aug-05 17:59N 49°45' W 004°55'4 8.4
2018-Aug-05 17:30N 49°45' W 005°01'130 7.8
2018-Aug-05 00:58N 51°15' W 007°28'8 8.7
2018-Aug-04 23:59N 51°21' W 007°37'7 8.6
2018-Aug-04 23:09N 51°27' W 007°46'1 8.7
2018-Aug-04 23:00N 51°27' W 007°47'4 8.7
2018-Aug-04 22:31N 51°30' W 007°52'4 8.8
2018-Aug-04 22:00N 51°34' W 007°57'4289.7
2018-Aug-04 22:00N 51°30' W 007°54'817.4 260 / 71024.510.8 17.015.317.0
2018-Aug-04 21:30N 51°37' W 008°02'4 8.9
2018-Aug-04 21:00N 51°40' W 008°07'  

Dump ship's entire track history